sensor_id;sensor_type;location;lat;lon;timestamp;pressure;altitude;pressure_sealevel;temperature;humidity
54262;BME280;40174;52.364;6.452;2023-11-25T00:01:57;100828.81;;;1.49;100.00
54262;BME280;40174;52.364;6.452;2023-11-25T00:04:24;100832.06;;;1.54;100.00
54262;BME280;40174;52.364;6.452;2023-11-25T00:06:51;100833.38;;;1.44;100.00
54262;BME280;40174;52.364;6.452;2023-11-25T00:09:17;100825.34;;;1.49;100.00
54262;BME280;40174;52.364;6.452;2023-11-25T00:11:44;100826.53;;;1.41;100.00
54262;BME280;40174;52.364;6.452;2023-11-25T00:14:10;100825.75;;;1.39;100.00
54262;BME280;40174;52.364;6.452;2023-11-25T00:16:37;100828.28;;;1.41;100.00
54262;BME280;40174;52.364;6.452;2023-11-25T00:19:05;100824.97;;;1.37;100.00
54262;BME280;40174;52.364;6.452;2023-11-25T00:21:31;100818.78;;;1.40;100.00
54262;BME280;40174;52.364;6.452;2023-11-25T00:23:58;100826.59;;;1.40;100.00
54262;BME280;40174;52.364;6.452;2023-11-25T00:26:25;100826.44;;;1.43;100.00
54262;BME280;40174;52.364;6.452;2023-11-25T00:28:57;100825.47;;;1.45;100.00
54262;BME280;40174;52.364;6.452;2023-11-25T00:31:24;100826.41;;;1.44;100.00
54262;BME280;40174;52.364;6.452;2023-11-25T00:33:51;100819.31;;;1.48;100.00
54262;BME280;40174;52.364;6.452;2023-11-25T00:36:19;100822.28;;;1.39;100.00
54262;BME280;40174;52.364;6.452;2023-11-25T00:38:46;100821.44;;;1.38;100.00
54262;BME280;40174;52.364;6.452;2023-11-25T00:41:13;100815.59;;;1.33;100.00
54262;BME280;40174;52.364;6.452;2023-11-25T00:43:39;100818.06;;;1.36;100.00
54262;BME280;40174;52.364;6.452;2023-11-25T00:46:06;100819.94;;;1.33;100.00
54262;BME280;40174;52.364;6.452;2023-11-25T00:48:33;100826.06;;;1.32;100.00
54262;BME280;40174;52.364;6.452;2023-11-25T00:51:00;100828.59;;;1.33;100.00
54262;BME280;40174;52.364;6.452;2023-11-25T00:53:28;100825.88;;;1.36;100.00
54262;BME280;40174;52.364;6.452;2023-11-25T00:55:55;100822.38;;;1.37;100.00
54262;BME280;40174;52.364;6.452;2023-11-25T00:58:22;100821.25;;;1.43;100.00
54262;BME280;40174;52.364;6.452;2023-11-25T01:00:48;100819.66;;;1.39;100.00
54262;BME280;40174;52.364;6.452;2023-11-25T01:03:15;100819.94;;;1.33;100.00
54262;BME280;40174;52.364;6.452;2023-11-25T01:05:42;100824.03;;;1.38;100.00
54262;BME280;40174;52.364;6.452;2023-11-25T01:08:09;100815.38;;;1.38;100.00
54262;BME280;40174;52.364;6.452;2023-11-25T01:10:37;100823.19;;;1.38;100.00
54262;BME280;40174;52.364;6.452;2023-11-25T01:13:05;100820.59;;;1.38;100.00
54262;BME280;40174;52.364;6.452;2023-11-25T01:15:32;100821.56;;;1.35;100.00
54262;BME280;40174;52.364;6.452;2023-11-25T01:17:58;100834.34;;;1.41;100.00
54262;BME280;40174;52.364;6.452;2023-11-25T01:20:25;100836.09;;;1.41;100.00
54262;BME280;40174;52.364;6.452;2023-11-25T01:22:52;100833.69;;;1.36;100.00
54262;BME280;40174;52.364;6.452;2023-11-25T01:25:19;100839.03;;;1.33;100.00
54262;BME280;40174;52.364;6.452;2023-11-25T01:27:47;100849.97;;;1.41;100.00
54262;BME280;40174;52.364;6.452;2023-11-25T01:30:14;100866.25;;;1.47;100.00
54262;BME280;40174;52.364;6.452;2023-11-25T01:32:41;100853.44;;;1.42;100.00
54262;BME280;40174;52.364;6.452;2023-11-25T01:35:08;100856.09;;;1.40;100.00
54262;BME280;40174;52.364;6.452;2023-11-25T01:37:34;100841.97;;;1.46;100.00
54262;BME280;40174;52.364;6.452;2023-11-25T01:40:01;100848.03;;;1.47;100.00
54262;BME280;40174;52.364;6.452;2023-11-25T01:42:30;100848.28;;;1.40;100.00
54262;BME280;40174;52.364;6.452;2023-11-25T01:44:58;100842.22;;;1.40;100.00
54262;BME280;40174;52.364;6.452;2023-11-25T01:47:25;100854.31;;;1.41;100.00
54262;BME280;40174;52.364;6.452;2023-11-25T01:49:51;100856.91;;;1.41;100.00
54262;BME280;40174;52.364;6.452;2023-11-25T01:52:18;100852.50;;;1.43;100.00
54262;BME280;40174;52.364;6.452;2023-11-25T01:54:45;100853.22;;;1.47;100.00
54262;BME280;40174;52.364;6.452;2023-11-25T01:57:12;100853.94;;;1.50;100.00
54262;BME280;40174;52.364;6.452;2023-11-25T01:59:41;100861.88;;;1.47;100.00
54262;BME280;40174;52.364;6.452;2023-11-25T02:02:10;100867.81;;;1.51;100.00
54262;BME280;40174;52.364;6.452;2023-11-25T02:04:38;100868.72;;;1.50;100.00
54262;BME280;40174;52.364;6.452;2023-11-25T02:07:05;100874.78;;;1.50;100.00
54262;BME280;40174;52.364;6.452;2023-11-25T02:09:31;100877.38;;;1.50;100.00
54262;BME280;40174;52.364;6.452;2023-11-25T02:12:01;100877.38;;;1.50;100.00
54262;BME280;40174;52.364;6.452;2023-11-25T02:14:28;100878.44;;;1.46;100.00
54262;BME280;40174;52.364;6.452;2023-11-25T02:16:55;100871.66;;;1.42;100.00
54262;BME280;40174;52.364;6.452;2023-11-25T02:19:24;100883.75;;;1.43;100.00
54262;BME280;40174;52.364;6.452;2023-11-25T02:21:51;100869.06;;;1.42;100.00
54262;BME280;40174;52.364;6.452;2023-11-25T02:24:19;100860.31;;;1.43;100.00
54262;BME280;40174;52.364;6.452;2023-11-25T02:26:47;100855.94;;;1.43;100.00
54262;BME280;40174;52.364;6.452;2023-11-25T02:29:14;100851.53;;;1.45;100.00
54262;BME280;40174;52.364;6.452;2023-11-25T02:31:40;100863.50;;;1.50;100.00
54262;BME280;40174;52.364;6.452;2023-11-25T02:34:07;100856.47;;;1.52;100.00
54262;BME280;40174;52.364;6.452;2023-11-25T02:36:35;100846.78;;;1.55;100.00
54262;BME280;40174;52.364;6.452;2023-11-25T02:39:02;100849.50;;;1.52;100.00
54262;BME280;40174;52.364;6.452;2023-11-25T02:41:29;100853.03;;;1.51;100.00
54262;BME280;40174;52.364;6.452;2023-11-25T02:43:57;100849.50;;;1.52;100.00
54262;BME280;40174;52.364;6.452;2023-11-25T02:46:24;100845.06;;;1.54;100.00
54262;BME280;40174;52.364;6.452;2023-11-25T02:48:50;100846.69;;;1.57;100.00
54262;BME280;40174;52.364;6.452;2023-11-25T02:51:17;100838.88;;;1.57;100.00
54262;BME280;40174;52.364;6.452;2023-11-25T02:53:44;100846.00;;;1.53;100.00
54262;BME280;40174;52.364;6.452;2023-11-25T02:56:11;100826.97;;;1.51;100.00
54262;BME280;40174;52.364;6.452;2023-11-25T02:58:39;100839.94;;;1.53;100.00
54262;BME280;40174;52.364;6.452;2023-11-25T03:01:06;100837.47;;;1.50;100.00
54262;BME280;40174;52.364;6.452;2023-11-25T03:03:37;100835.59;;;1.53;100.00
54262;BME280;40174;52.364;6.452;2023-11-25T03:06:08;100827.88;;;1.50;100.00
54262;BME280;40174;52.364;6.452;2023-11-25T03:08:35;100825.47;;;1.45;100.00
54262;BME280;40174;52.364;6.452;2023-11-25T03:11:01;100821.25;;;1.43;100.00
54262;BME280;40174;52.364;6.452;2023-11-25T03:13:38;100818.63;;;1.43;100.00
54262;BME280;40174;52.364;6.452;2023-11-25T03:16:06;100821.19;;;1.44;100.00
54262;BME280;40174;52.364;6.452;2023-11-25T03:18:33;100820.53;;;1.39;100.00
54262;BME280;40174;52.364;6.452;2023-11-25T03:20:59;100808.50;;;1.37;100.00
54262;BME280;40174;52.364;6.452;2023-11-25T03:23:26;100811.09;;;1.37;100.00
54262;BME280;40174;52.364;6.452;2023-11-25T03:25:52;100806.84;;;1.34;100.00
54262;BME280;40174;52.364;6.452;2023-11-25T03:28:19;100806.25;;;1.28;100.00
54262;BME280;40174;52.364;6.452;2023-11-25T03:30:47;100804.53;;;1.28;100.00
54262;BME280;40174;52.364;6.452;2023-11-25T03:33:15;100801.13;;;1.26;100.00
54262;BME280;40174;52.364;6.452;2023-11-25T03:35:42;100803.78;;;1.24;100.00
54262;BME280;40174;52.364;6.452;2023-11-25T03:38:08;100811.47;;;1.28;100.00
54262;BME280;40174;52.364;6.452;2023-11-25T03:40:35;100820.19;;;1.27;100.00
54262;BME280;40174;52.364;6.452;2023-11-25T03:43:01;100818.69;;;1.21;100.00
54262;BME280;40174;52.364;6.452;2023-11-25T03:45:28;100810.13;;;1.19;100.00
54262;BME280;40174;52.364;6.452;2023-11-25T03:47:55;100818.00;;;1.17;100.00
54262;BME280;40174;52.364;6.452;2023-11-25T03:50:23;100807.03;;;1.09;100.00
54262;BME280;40174;52.364;6.452;2023-11-25T03:52:49;100817.34;;;1.12;100.00
54262;BME280;40174;52.364;6.452;2023-11-25T03:55:16;100809.63;;;1.09;100.00
54262;BME280;40174;52.364;6.452;2023-11-25T03:57:44;100802.81;;;1.07;100.00
54262;BME280;40174;52.364;6.452;2023-11-25T04:00:12;100814.84;;;1.09;100.00
54262;BME280;40174;52.364;6.452;2023-11-25T04:02:41;100813.25;;;1.05;100.00
54262;BME280;40174;52.364;6.452;2023-11-25T04:05:09;100810.66;;;1.05;100.00
54262;BME280;40174;52.364;6.452;2023-11-25T04:07:37;100815.03;;;1.04;100.00
54262;BME280;40174;52.364;6.452;2023-11-25T04:10:05;100817.56;;;1.06;100.00
54262;BME280;40174;52.364;6.452;2023-11-25T04:12:38;100818.28;;;1.10;100.00
54262;BME280;40174;52.364;6.452;2023-11-25T04:15:07;100819.06;;;1.12;100.00
54262;BME280;40174;52.364;6.452;2023-11-25T04:17:33;100823.38;;;1.13;100.00
54262;BME280;40174;52.364;6.452;2023-11-25T04:20:00;100822.34;;;1.17;100.00
54262;BME280;40174;52.364;6.452;2023-11-25T04:22:28;100826.44;;;1.22;100.00
54262;BME280;40174;52.364;6.452;2023-11-25T04:24:56;100836.66;;;1.27;100.00
54262;BME280;40174;52.364;6.452;2023-11-25T04:27:22;100841.44;;;1.38;100.00
54262;BME280;40174;52.364;6.452;2023-11-25T04:29:51;100851.22;;;1.53;100.00
54262;BME280;40174;52.364;6.452;2023-11-25T04:32:18;100848.16;;;1.64;100.00
54262;BME280;40174;52.364;6.452;2023-11-25T04:34:45;100834.94;;;1.69;100.00
54262;BME280;40174;52.364;6.452;2023-11-25T04:37:12;100832.25;;;1.70;100.00
54262;BME280;40174;52.364;6.452;2023-11-25T04:39:39;100818.94;;;1.76;100.00
54262;BME280;40174;52.364;6.452;2023-11-25T04:42:07;100792.69;;;1.81;100.00
54262;BME280;40174;52.364;6.452;2023-11-25T04:44:34;100808.91;;;1.87;100.00
54262;BME280;40174;52.364;6.452;2023-11-25T04:47:01;100815.94;;;1.85;100.00
54262;BME280;40174;52.364;6.452;2023-11-25T04:49:27;100828.06;;;1.86;100.00
54262;BME280;40174;52.364;6.452;2023-11-25T04:51:54;100841.09;;;1.86;100.00
54262;BME280;40174;52.364;6.452;2023-11-25T04:54:20;100849.72;;;1.89;100.00
54262;BME280;40174;52.364;6.452;2023-11-25T04:56:47;100838.28;;;1.91;100.00
54262;BME280;40174;52.364;6.452;2023-11-25T04:59:15;100819.25;;;1.89;100.00
54262;BME280;40174;52.364;6.452;2023-11-25T05:01:42;100814.09;;;1.87;100.00
54262;BME280;40174;52.364;6.452;2023-11-25T05:04:08;100817.34;;;1.93;100.00
54262;BME280;40174;52.364;6.452;2023-11-25T05:06:35;100819.13;;;1.92;100.00
54262;BME280;40174;52.364;6.452;2023-11-25T05:09:02;100794.88;;;1.90;100.00
54262;BME280;40174;52.364;6.452;2023-11-25T05:11:30;100795.81;;;1.89;100.00
54262;BME280;40174;52.364;6.452;2023-11-25T05:13:57;100800.19;;;1.89;100.00
54262;BME280;40174;52.364;6.452;2023-11-25T05:16:25;100802.91;;;1.85;100.00
54262;BME280;40174;52.364;6.452;2023-11-25T05:18:51;100812.34;;;1.88;100.00
54262;BME280;40174;52.364;6.452;2023-11-25T05:21:18;100806.22;;;1.89;100.00
54262;BME280;40174;52.364;6.452;2023-11-25T05:23:46;100795.22;;;1.82;100.00
54262;BME280;40174;52.364;6.452;2023-11-25T05:26:14;100792.69;;;1.81;100.00
54262;BME280;40174;52.364;6.452;2023-11-25T05:28:42;100786.78;;;1.77;100.00
54262;BME280;40174;52.364;6.452;2023-11-25T05:31:08;100778.28;;;1.72;100.00
54262;BME280;40174;52.364;6.452;2023-11-25T05:33:36;100782.47;;;1.76;100.00
54262;BME280;40174;52.364;6.452;2023-11-25T05:36:03;100767.66;;;1.77;100.00
54262;BME280;40174;52.364;6.452;2023-11-25T05:38:30;100767.75;;;1.75;100.00
54262;BME280;40174;52.364;6.452;2023-11-25T05:40:57;100760.19;;;1.69;100.00
54262;BME280;40174;52.364;6.452;2023-11-25T05:43:23;100762.59;;;1.74;100.00
54262;BME280;40174;52.364;6.452;2023-11-25T05:45:50;100776.41;;;1.76;100.00
54262;BME280;40174;52.364;6.452;2023-11-25T05:48:17;100783.59;;;1.71;100.00
54262;BME280;40174;52.364;6.452;2023-11-25T05:50:45;100792.19;;;1.73;100.00
54262;BME280;40174;52.364;6.452;2023-11-25T05:53:12;100791.22;;;1.75;100.00
54262;BME280;40174;52.364;6.452;2023-11-25T05:55:38;100788.66;;;1.74;100.00
54262;BME280;40174;52.364;6.452;2023-11-25T05:58:05;100789.38;;;1.77;100.00
54262;BME280;40174;52.364;6.452;2023-11-25T06:00:31;100767.53;;;1.80;100.00
54262;BME280;40174;52.364;6.452;2023-11-25T06:02:57;100773.44;;;1.83;100.00
54262;BME280;40174;52.364;6.452;2023-11-25T06:05:24;100765.56;;;1.85;100.00
54262;BME280;40174;52.364;6.452;2023-11-25T06:07:52;100778.75;;;1.82;100.00
54262;BME280;40174;52.364;6.452;2023-11-25T06:10:19;100765.72;;;1.82;100.00
54262;BME280;40174;52.364;6.452;2023-11-25T06:12:46;100766.41;;;1.85;100.00
54262;BME280;40174;52.364;6.452;2023-11-25T06:15:13;100764.78;;;1.83;100.00
54262;BME280;40174;52.364;6.452;2023-11-25T06:17:40;100754.44;;;1.81;100.00
54262;BME280;40174;52.364;6.452;2023-11-25T06:20:09;100758.69;;;1.84;100.00
54262;BME280;40174;52.364;6.452;2023-11-25T06:22:36;100772.56;;;1.84;100.00
54262;BME280;40174;52.364;6.452;2023-11-25T06:25:04;100787.25;;;1.85;100.00
54262;BME280;40174;52.364;6.452;2023-11-25T06:27:31;100799.25;;;1.90;100.00
54262;BME280;40174;52.364;6.452;2023-11-25T06:29:57;100761.06;;;2.07;100.00
54262;BME280;40174;52.364;6.452;2023-11-25T06:32:24;100768.19;;;2.04;100.00
54262;BME280;40174;52.364;6.452;2023-11-25T06:34:52;100765.56;;;2.04;100.00
54262;BME280;40174;52.364;6.452;2023-11-25T06:37:23;100759.72;;;1.99;100.00
54262;BME280;40174;52.364;6.452;2023-11-25T06:39:50;100759.09;;;1.94;100.00
54262;BME280;40174;52.364;6.452;2023-11-25T06:42:17;100757.28;;;1.96;100.00
54262;BME280;40174;52.364;6.452;2023-11-25T06:44:44;100745.84;;;1.98;100.00
54262;BME280;40174;52.364;6.452;2023-11-25T06:47:13;100741.53;;;1.97;100.00
54262;BME280;40174;52.364;6.452;2023-11-25T06:49:43;100746.00;;;1.95;100.00
54262;BME280;40174;52.364;6.452;2023-11-25T06:52:10;100740.84;;;1.94;100.00
54262;BME280;40174;52.364;6.452;2023-11-25T06:54:38;100725.38;;;1.91;100.00
54262;BME280;40174;52.364;6.452;2023-11-25T06:57:05;100740.91;;;1.92;100.00
54262;BME280;40174;52.364;6.452;2023-11-25T06:59:33;100742.75;;;1.90;100.00
54262;BME280;40174;52.364;6.452;2023-11-25T07:01:59;100741.06;;;1.89;100.00
54262;BME280;40174;52.364;6.452;2023-11-25T07:04:26;100738.53;;;1.87;100.00
54262;BME280;40174;52.364;6.452;2023-11-25T07:06:52;100728.16;;;1.86;100.00
54262;BME280;40174;52.364;6.452;2023-11-25T07:09:19;100731.63;;;1.86;100.00
54262;BME280;40174;52.364;6.452;2023-11-25T07:11:46;100730.69;;;1.87;100.00
54262;BME280;40174;52.364;6.452;2023-11-25T07:14:14;100729.25;;;1.82;100.00
54262;BME280;40174;52.364;6.452;2023-11-25T07:16:43;100724.72;;;1.85;100.00
54262;BME280;40174;52.364;6.452;2023-11-25T07:19:10;100713.59;;;1.82;100.00
54262;BME280;40174;52.364;6.452;2023-11-25T07:21:37;100723.94;;;1.83;100.00
54262;BME280;40174;52.364;6.452;2023-11-25T07:24:04;100731.75;;;1.83;100.00
54262;BME280;40174;52.364;6.452;2023-11-25T07:26:31;100728.16;;;1.86;100.00
54262;BME280;40174;52.364;6.452;2023-11-25T07:28:57;100733.38;;;1.86;100.00
54262;BME280;40174;52.364;6.452;2023-11-25T07:31:24;100748.09;;;1.87;100.00
54262;BME280;40174;52.364;6.452;2023-11-25T07:33:52;100759.31;;;1.89;100.00
54262;BME280;40174;52.364;6.452;2023-11-25T07:36:19;100752.34;;;1.90;100.00
54262;BME280;40174;52.364;6.452;2023-11-25T07:38:46;100760.16;;;1.90;100.00
54262;BME280;40174;52.364;6.452;2023-11-25T07:41:16;100756.50;;;1.94;100.00
54262;BME280;40174;52.364;6.452;2023-11-25T07:43:43;100746.28;;;1.89;100.00
54262;BME280;40174;52.364;6.452;2023-11-25T07:46:10;100749.56;;;1.93;100.00
54262;BME280;40174;52.364;6.452;2023-11-25T07:48:36;100737.97;;;2.00;100.00
54262;BME280;40174;52.364;6.452;2023-11-25T07:51:05;100730.94;;;2.02;100.00
54262;BME280;40174;52.364;6.452;2023-11-25T07:53:31;100727.41;;;2.03;100.00
54262;BME280;40174;52.364;6.452;2023-11-25T07:55:58;100731.78;;;2.02;100.00
54262;BME280;40174;52.364;6.452;2023-11-25T07:58:25;100727.34;;;2.04;100.00
54262;BME280;40174;52.364;6.452;2023-11-25T08:00:52;100729.00;;;2.05;100.00
54262;BME280;40174;52.364;6.452;2023-11-25T08:03:19;100733.31;;;2.06;100.00
54262;BME280;40174;52.364;6.452;2023-11-25T08:05:45;100733.16;;;2.10;100.00
54262;BME280;40174;52.364;6.452;2023-11-25T08:08:14;100727.94;;;2.10;100.00
54262;BME280;40174;52.364;6.452;2023-11-25T08:10:40;100723.47;;;2.13;100.00
54262;BME280;40174;52.364;6.452;2023-11-25T08:13:07;100734.72;;;2.14;100.00
54262;BME280;40174;52.364;6.452;2023-11-25T08:15:33;100731.19;;;2.15;100.00
54262;BME280;40174;52.364;6.452;2023-11-25T08:18:00;100719.75;;;2.17;100.00
54262;BME280;40174;52.364;6.452;2023-11-25T08:20:27;100720.47;;;2.21;100.00
54262;BME280;40174;52.364;6.452;2023-11-25T08:22:53;100717.09;;;2.19;100.00
54262;BME280;40174;52.364;6.452;2023-11-25T08:25:21;100716.25;;;2.18;100.00
54262;BME280;40174;52.364;6.452;2023-11-25T08:27:49;100715.19;;;2.22;100.00
54262;BME280;40174;52.364;6.452;2023-11-25T08:30:16;100719.63;;;2.20;100.00
54262;BME280;40174;52.364;6.452;2023-11-25T08:32:43;100721.19;;;2.24;100.00
54262;BME280;40174;52.364;6.452;2023-11-25T08:35:11;100714.88;;;2.28;100.00
54262;BME280;40174;52.364;6.452;2023-11-25T08:37:38;100720.81;;;2.32;100.00
54262;BME280;40174;52.364;6.452;2023-11-25T08:40:06;100723.47;;;2.31;100.00
54262;BME280;40174;52.364;6.452;2023-11-25T08:42:36;100727.56;;;2.36;100.00
54262;BME280;40174;52.364;6.452;2023-11-25T08:45:03;100716.91;;;2.41;100.00
54262;BME280;40174;52.364;6.452;2023-11-25T08:47:30;100719.53;;;2.41;100.00
54262;BME280;40174;52.364;6.452;2023-11-25T08:49:57;100718.38;;;2.46;100.00
54262;BME280;40174;52.364;6.452;2023-11-25T08:52:24;100728.28;;;2.57;100.00
54262;BME280;40174;52.364;6.452;2023-11-25T08:54:52;100738.50;;;2.62;100.00
54262;BME280;40174;52.364;6.452;2023-11-25T08:57:19;100743.28;;;2.71;100.00
54262;BME280;40174;52.364;6.452;2023-11-25T08:59:48;100741.59;;;2.70;100.00
54262;BME280;40174;52.364;6.452;2023-11-25T09:02:14;100746.81;;;2.70;100.00
54262;BME280;40174;52.364;6.452;2023-11-25T09:04:48;100764.94;;;2.73;100.00
54262;BME280;40174;52.364;6.452;2023-11-25T09:07:15;100759.66;;;2.75;100.00
54262;BME280;40174;52.364;6.452;2023-11-25T09:09:43;100738.59;;;2.78;100.00
54262;BME280;40174;52.364;6.452;2023-11-25T09:12:11;100733.94;;;2.84;100.00
54262;BME280;40174;52.364;6.452;2023-11-25T09:14:37;100731.63;;;2.78;100.00
54262;BME280;40174;52.364;6.452;2023-11-25T09:17:06;100741.31;;;2.76;100.00
54262;BME280;40174;52.364;6.452;2023-11-25T09:19:32;100736.16;;;2.75;100.00
54262;BME280;40174;52.364;6.452;2023-11-25T09:21:59;100744.06;;;2.73;100.00
54262;BME280;40174;52.364;6.452;2023-11-25T09:24:26;100749.81;;;2.80;100.00
54262;BME280;40174;52.364;6.452;2023-11-25T09:26:52;100743.47;;;2.85;100.00
54262;BME280;40174;52.364;6.452;2023-11-25T09:29:20;100745.84;;;2.90;100.00
54262;BME280;40174;52.364;6.452;2023-11-25T09:31:46;100742.84;;;2.98;100.00
54262;BME280;40174;52.364;6.452;2023-11-25T09:34:14;100738.63;;;2.95;100.00
54262;BME280;40174;52.364;6.452;2023-11-25T09:36:41;100747.75;;;3.04;100.00
54262;BME280;40174;52.364;6.452;2023-11-25T09:39:07;100738.78;;;3.09;100.00
54262;BME280;40174;52.364;6.452;2023-11-25T09:41:35;100738.47;;;3.16;100.00
54262;BME280;40174;52.364;6.452;2023-11-25T09:44:03;100741.06;;;3.16;100.00
54262;BME280;40174;52.364;6.452;2023-11-25T09:46:33;100749.66;;;3.18;100.00
54262;BME280;40174;52.364;6.452;2023-11-25T09:49:00;100741.28;;;3.28;100.00
54262;BME280;40174;52.364;6.452;2023-11-25T09:51:30;100733.38;;;3.30;100.00
54262;BME280;40174;52.364;6.452;2023-11-25T09:54:02;100739.03;;;3.38;100.00
54262;BME280;40174;52.364;6.452;2023-11-25T09:56:29;100729.13;;;3.45;100.00
54262;BME280;40174;52.364;6.452;2023-11-25T09:58:56;100737.81;;;3.45;100.00
54262;BME280;40174;52.364;6.452;2023-11-25T10:01:22;100727.97;;;3.50;100.00
54262;BME280;40174;52.364;6.452;2023-11-25T10:03:51;100730.66;;;3.49;100.00
54262;BME280;40174;52.364;6.452;2023-11-25T10:06:20;100719.28;;;3.50;100.00
54262;BME280;40174;52.364;6.452;2023-11-25T10:08:49;100728.50;;;3.57;100.00
54262;BME280;40174;52.364;6.452;2023-11-25T10:11:15;100731.69;;;3.62;100.00
54262;BME280;40174;52.364;6.452;2023-11-25T10:13:44;100721.00;;;3.67;100.00
54262;BME280;40174;52.364;6.452;2023-11-25T10:16:12;100718.72;;;3.77;100.00
54262;BME280;40174;52.364;6.452;2023-11-25T10:18:39;100733.00;;;3.87;100.00
54262;BME280;40174;52.364;6.452;2023-11-25T10:21:07;100726.00;;;3.87;100.00
54262;BME280;40174;52.364;6.452;2023-11-25T10:23:35;100716.06;;;3.94;100.00
54262;BME280;40174;52.364;6.452;2023-11-25T10:26:03;100719.94;;;4.03;100.00
54262;BME280;40174;52.364;6.452;2023-11-25T10:28:32;100723.84;;;4.11;100.00
54262;BME280;40174;52.364;6.452;2023-11-25T10:31:00;100740.09;;;4.16;100.00
54262;BME280;40174;52.364;6.452;2023-11-25T10:33:27;100728.72;;;4.18;100.00
54262;BME280;40174;52.364;6.452;2023-11-25T10:35:54;100729.50;;;4.20;100.00
54262;BME280;40174;52.364;6.452;2023-11-25T10:38:21;100727.63;;;4.22;100.00
54262;BME280;40174;52.364;6.452;2023-11-25T10:40:56;100745.00;;;4.23;100.00
54262;BME280;40174;52.364;6.452;2023-11-25T10:43:24;100748.47;;;4.23;100.00
54262;BME280;40174;52.364;6.452;2023-11-25T10:46:00;100750.31;;;4.21;100.00
54262;BME280;40174;52.364;6.452;2023-11-25T10:48:27;100758.16;;;4.21;100.00
54262;BME280;40174;52.364;6.452;2023-11-25T10:50:54;100758.94;;;4.23;100.00
54262;BME280;40174;52.364;6.452;2023-11-25T10:53:21;100758.94;;;4.23;100.00
54262;BME280;40174;52.364;6.452;2023-11-25T10:55:51;100731.94;;;4.23;100.00
54262;BME280;40174;52.364;6.452;2023-11-25T10:58:21;100713.63;;;4.23;100.00
54262;BME280;40174;52.364;6.452;2023-11-25T11:00:50;100723.13;;;4.24;100.00
54262;BME280;40174;52.364;6.452;2023-11-25T11:03:20;100718.59;;;4.27;100.00
54262;BME280;40174;52.364;6.452;2023-11-25T11:05:49;100719.28;;;4.31;100.00
54262;BME280;40174;52.364;6.452;2023-11-25T11:08:19;100720.34;;;4.43;100.00
54262;BME280;40174;52.364;6.452;2023-11-25T11:10:54;100718.16;;;4.51;100.00
54262;BME280;40174;52.364;6.452;2023-11-25T11:13:29;100723.97;;;4.56;100.00
54262;BME280;40174;52.364;6.452;2023-11-25T11:16:02;100721.84;;;4.63;100.00
54262;BME280;40174;52.364;6.452;2023-11-25T11:18:34;100728.88;;;4.62;100.00
54262;BME280;40174;52.364;6.452;2023-11-25T11:21:06;100733.22;;;4.62;100.00
54262;BME280;40174;52.364;6.452;2023-11-25T11:23:34;100721.91;;;4.61;100.00
54262;BME280;40174;52.364;6.452;2023-11-25T11:26:13;100719.16;;;4.64;100.00
54262;BME280;40174;52.364;6.452;2023-11-25T11:28:46;100717.25;;;4.66;100.00
54262;BME280;40174;52.364;6.452;2023-11-25T11:31:52;100708.31;;;4.70;100.00
54262;BME280;40174;52.364;6.452;2023-11-25T11:34:23;100722.97;;;4.73;100.00
54262;BME280;40174;52.364;6.452;2023-11-25T11:36:51;100726.59;;;4.86;100.00
54262;BME280;40174;52.364;6.452;2023-11-25T11:39:31;100718.78;;;5.00;100.00
54262;BME280;40174;52.364;6.452;2023-11-25T11:42:28;100717.56;;;5.06;100.00
54262;BME280;40174;52.364;6.452;2023-11-25T11:45:01;100711.81;;;5.30;100.00
54262;BME280;40174;52.364;6.452;2023-11-25T11:47:39;100717.34;;;5.39;100.00
54262;BME280;40174;52.364;6.452;2023-11-25T11:50:06;100721.66;;;5.40;100.00
54262;BME280;40174;52.364;6.452;2023-11-25T11:52:43;100734.56;;;5.44;100.00
54262;BME280;40174;52.364;6.452;2023-11-25T11:55:38;100730.16;;;5.44;100.00
54262;BME280;40174;52.364;6.452;2023-11-25T11:58:06;100734.47;;;5.45;100.00
54262;BME280;40174;52.364;6.452;2023-11-25T12:00:39;100740.47;;;5.47;100.00
54262;BME280;40174;52.364;6.452;2023-11-25T12:03:08;100728.28;;;5.46;100.00
54262;BME280;40174;52.364;6.452;2023-11-25T12:05:35;100732.50;;;5.49;100.00
54262;BME280;40174;52.364;6.452;2023-11-25T12:08:02;100717.16;;;5.57;100.00
54262;BME280;40174;52.364;6.452;2023-11-25T12:10:28;100710.88;;;5.59;100.00
54262;BME280;40174;52.364;6.452;2023-11-25T12:12:55;100718.75;;;5.59;100.00
54262;BME280;40174;52.364;6.452;2023-11-25T12:15:23;100712.66;;;5.59;100.00
54262;BME280;40174;52.364;6.452;2023-11-25T12:17:50;100715.19;;;5.60;100.00
54262;BME280;40174;52.364;6.452;2023-11-25T12:20:19;100710.69;;;5.62;100.00
54262;BME280;40174;52.364;6.452;2023-11-25T12:22:46;100715.47;;;5.70;100.00
54262;BME280;40174;52.364;6.452;2023-11-25T12:25:13;100702.91;;;5.90;100.00
54262;BME280;40174;52.364;6.452;2023-11-25T12:27:49;100702.41;;;6.12;100.00
54262;BME280;40174;52.364;6.452;2023-11-25T12:30:17;100706.88;;;6.51;100.00
54262;BME280;40174;52.364;6.452;2023-11-25T12:32:43;100707.97;;;6.61;100.00
54262;BME280;40174;52.364;6.452;2023-11-25T12:35:10;100714.84;;;6.50;100.00
54262;BME280;40174;52.364;6.452;2023-11-25T12:37:41;100709.56;;;6.37;100.00
54262;BME280;40174;52.364;6.452;2023-11-25T12:40:16;100712.47;;;6.32;100.00
54262;BME280;40174;52.364;6.452;2023-11-25T12:42:44;100706.69;;;6.27;100.00
54262;BME280;40174;52.364;6.452;2023-11-25T12:45:26;100708.22;;;6.44;100.00
54262;BME280;40174;52.364;6.452;2023-11-25T12:47:53;100711.22;;;6.65;100.00
54262;BME280;40174;52.364;6.452;2023-11-25T12:50:20;100714.13;;;6.87;100.00
54262;BME280;40174;52.364;6.452;2023-11-25T12:53:02;100727.91;;;7.04;100.00
54262;BME280;40174;52.364;6.452;2023-11-25T12:55:36;100725.41;;;7.02;100.00